sensor_id;sensor_type;location;lat;lon;timestamp;P1;durP1;ratioP1;P2;durP2;ratioP2
11269;SDS011;5692;48.956;9.200;2023-07-29T00:00:38;308.38;;;293.65;;
11269;SDS011;5692;48.956;9.200;2023-07-29T00:03:04;300.02;;;285.70;;
11269;SDS011;5692;48.956;9.200;2023-07-29T00:05:31;329.10;;;313.40;;
11269;SDS011;5692;48.956;9.200;2023-07-29T00:07:57;300.45;;;286.10;;
11269;SDS011;5692;48.956;9.200;2023-07-29T00:10:30;315.75;;;300.65;;
11269;SDS011;5692;48.956;9.200;2023-07-29T00:12:57;315.13;;;300.08;;
11269;SDS011;5692;48.956;9.200;2023-07-29T00:15:26;323.27;;;307.83;;
11269;SDS011;5692;48.956;9.200;2023-07-29T00:17:52;311.10;;;296.23;;
11269;SDS011;5692;48.956;9.200;2023-07-29T00:20:21;321.05;;;305.70;;
11269;SDS011;5692;48.956;9.200;2023-07-29T00:22:47;313.98;;;298.98;;
11269;SDS011;5692;48.956;9.200;2023-07-29T00:25:19;297.65;;;283.40;;
11269;SDS011;5692;48.956;9.200;2023-07-29T00:27:45;326.23;;;310.65;;
11269;SDS011;5692;48.956;9.200;2023-07-29T00:30:11;310.65;;;295.83;;
11269;SDS011;5692;48.956;9.200;2023-07-29T00:32:38;306.65;;;291.98;;
11269;SDS011;5692;48.956;9.200;2023-07-29T00:35:04;309.75;;;294.95;;
11269;SDS011;5692;48.956;9.200;2023-07-29T00:37:31;316.77;;;301.67;;
11269;SDS011;5692;48.956;9.200;2023-07-29T00:39:57;322.13;;;306.73;;
11269;SDS011;5692;48.956;9.200;2023-07-29T00:42:24;321.40;;;306.02;;
11269;SDS011;5692;48.956;9.200;2023-07-29T00:44:50;300.15;;;285.80;;
11269;SDS011;5692;48.956;9.200;2023-07-29T00:47:17;309.98;;;295.15;;
11269;SDS011;5692;48.956;9.200;2023-07-29T00:49:47;321.20;;;305.85;;
11269;SDS011;5692;48.956;9.200;2023-07-29T00:52:13;311.02;;;296.17;;
11269;SDS011;5692;48.956;9.200;2023-07-29T00:54:39;294.10;;;280.02;;
11269;SDS011;5692;48.956;9.200;2023-07-29T00:57:09;307.23;;;292.52;;
11269;SDS011;5692;48.956;9.200;2023-07-29T00:59:39;305.52;;;290.92;;
11269;SDS011;5692;48.956;9.200;2023-07-29T01:02:05;308.58;;;293.88;;
11269;SDS011;5692;48.956;9.200;2023-07-29T01:04:32;308.23;;;293.52;;
11269;SDS011;5692;48.956;9.200;2023-07-29T01:09:44;292.45;;;278.48;;
11269;SDS011;5692;48.956;9.200;2023-07-29T01:12:19;300.95;;;286.55;;
11269;SDS011;5692;48.956;9.200;2023-07-29T01:17:29;319.08;;;303.83;;
11269;SDS011;5692;48.956;9.200;2023-07-29T01:22:26;318.60;;;303.40;;
11269;SDS011;5692;48.956;9.200;2023-07-29T01:24:53;302.08;;;287.65;;
11269;SDS011;5692;48.956;9.200;2023-07-29T01:27:19;319.38;;;304.13;;
11269;SDS011;5692;48.956;9.200;2023-07-29T01:29:46;322.35;;;306.95;;
11269;SDS011;5692;48.956;9.200;2023-07-29T01:32:35;304.35;;;289.83;;
11269;SDS011;5692;48.956;9.200;2023-07-29T01:37:26;312.98;;;298.02;;
11269;SDS011;5692;48.956;9.200;2023-07-29T01:39:56;311.15;;;296.30;;
11269;SDS011;5692;48.956;9.200;2023-07-29T01:42:24;290.58;;;276.67;;
11269;SDS011;5692;48.956;9.200;2023-07-29T01:44:51;298.38;;;284.13;;
11269;SDS011;5692;48.956;9.200;2023-07-29T01:47:18;310.60;;;295.75;;
11269;SDS011;5692;48.956;9.200;2023-07-29T01:49:44;311.75;;;296.85;;
11269;SDS011;5692;48.956;9.200;2023-07-29T01:52:14;300.15;;;285.80;;
11269;SDS011;5692;48.956;9.200;2023-07-29T01:54:40;288.75;;;274.95;;
11269;SDS011;5692;48.956;9.200;2023-07-29T01:57:09;302.48;;;288.02;;
11269;SDS011;5692;48.956;9.200;2023-07-29T01:59:35;300.60;;;286.25;;
11269;SDS011;5692;48.956;9.200;2023-07-29T02:02:02;303.70;;;289.20;;
11269;SDS011;5692;48.956;9.200;2023-07-29T02:04:28;324.23;;;308.73;;
11269;SDS011;5692;48.956;9.200;2023-07-29T02:06:54;304.77;;;290.23;;
11269;SDS011;5692;48.956;9.200;2023-07-29T02:09:20;299.27;;;284.98;;
11269;SDS011;5692;48.956;9.200;2023-07-29T02:11:47;303.02;;;288.52;;
11269;SDS011;5692;48.956;9.200;2023-07-29T02:14:14;320.10;;;304.80;;
11269;SDS011;5692;48.956;9.200;2023-07-29T02:16:40;304.75;;;290.17;;
11269;SDS011;5692;48.956;9.200;2023-07-29T02:19:07;310.88;;;296.02;;
11269;SDS011;5692;48.956;9.200;2023-07-29T02:21:33;307.17;;;292.50;;
11269;SDS011;5692;48.956;9.200;2023-07-29T02:23:59;292.58;;;278.58;;
11269;SDS011;5692;48.956;9.200;2023-07-29T02:26:26;312.90;;;297.95;;
11269;SDS011;5692;48.956;9.200;2023-07-29T02:28:54;296.02;;;281.88;;
11269;SDS011;5692;48.956;9.200;2023-07-29T02:31:21;299.70;;;285.40;;
11269;SDS011;5692;48.956;9.200;2023-07-29T02:33:48;296.50;;;282.33;;
11269;SDS011;5692;48.956;9.200;2023-07-29T02:36:15;313.58;;;298.60;;
11269;SDS011;5692;48.956;9.200;2023-07-29T02:38:41;299.10;;;284.80;;
11269;SDS011;5692;48.956;9.200;2023-07-29T02:41:08;292.65;;;278.67;;
11269;SDS011;5692;48.956;9.200;2023-07-29T02:43:35;288.50;;;274.70;;
11269;SDS011;5692;48.956;9.200;2023-07-29T02:46:01;286.80;;;273.10;;
11269;SDS011;5692;48.956;9.200;2023-07-29T02:48:28;292.15;;;278.20;;
11269;SDS011;5692;48.956;9.200;2023-07-29T02:50:54;285.25;;;271.65;;
11269;SDS011;5692;48.956;9.200;2023-07-29T02:53:21;319.90;;;304.60;;
11269;SDS011;5692;48.956;9.200;2023-07-29T02:55:51;294.20;;;280.15;;
11269;SDS011;5692;48.956;9.200;2023-07-29T02:58:18;286.08;;;272.40;;
11269;SDS011;5692;48.956;9.200;2023-07-29T03:00:44;303.13;;;288.65;;
11269;SDS011;5692;48.956;9.200;2023-07-29T03:03:12;305.63;;;291.02;;
11269;SDS011;5692;48.956;9.200;2023-07-29T03:05:39;294.65;;;280.55;;
11269;SDS011;5692;48.956;9.200;2023-07-29T03:08:05;291.80;;;277.85;;
11269;SDS011;5692;48.956;9.200;2023-07-29T03:10:34;287.15;;;273.42;;
11269;SDS011;5692;48.956;9.200;2023-07-29T03:13:00;279.08;;;265.73;;
11269;SDS011;5692;48.956;9.200;2023-07-29T03:15:27;285.25;;;271.63;;
11269;SDS011;5692;48.956;9.200;2023-07-29T03:17:53;279.80;;;266.42;;
11269;SDS011;5692;48.956;9.200;2023-07-29T03:20:30;277.90;;;264.60;;
11269;SDS011;5692;48.956;9.200;2023-07-29T03:22:56;283.98;;;270.38;;
11269;SDS011;5692;48.956;9.200;2023-07-29T03:25:23;289.98;;;276.13;;
11269;SDS011;5692;48.956;9.200;2023-07-29T03:27:49;283.83;;;270.27;;
11269;SDS011;5692;48.956;9.200;2023-07-29T03:30:18;282.23;;;268.73;;
11269;SDS011;5692;48.956;9.200;2023-07-29T03:32:46;285.30;;;271.65;;
11269;SDS011;5692;48.956;9.200;2023-07-29T03:35:12;276.40;;;263.20;;
11269;SDS011;5692;48.956;9.200;2023-07-29T03:37:39;289.27;;;275.42;;
11269;SDS011;5692;48.956;9.200;2023-07-29T03:40:05;291.75;;;277.80;;
11269;SDS011;5692;48.956;9.200;2023-07-29T03:42:32;282.90;;;269.38;;
11269;SDS011;5692;48.956;9.200;2023-07-29T03:44:58;288.70;;;274.90;;
11269;SDS011;5692;48.956;9.200;2023-07-29T03:47:24;295.10;;;281.00;;
11269;SDS011;5692;48.956;9.200;2023-07-29T03:49:50;285.05;;;271.45;;
11269;SDS011;5692;48.956;9.200;2023-07-29T03:52:16;283.00;;;269.50;;
11269;SDS011;5692;48.956;9.200;2023-07-29T03:54:42;292.20;;;278.23;;
11269;SDS011;5692;48.956;9.200;2023-07-29T03:57:08;286.03;;;272.37;;
11269;SDS011;5692;48.956;9.200;2023-07-29T03:59:34;293.00;;;279.00;;
11269;SDS011;5692;48.956;9.200;2023-07-29T04:02:00;277.65;;;264.35;;
11269;SDS011;5692;48.956;9.200;2023-07-29T04:04:27;287.77;;;274.02;;
11269;SDS011;5692;48.956;9.200;2023-07-29T04:06:53;287.42;;;273.67;;
11269;SDS011;5692;48.956;9.200;2023-07-29T04:09:19;286.83;;;273.13;;
11269;SDS011;5692;48.956;9.200;2023-07-29T04:11:45;301.30;;;286.90;;
11269;SDS011;5692;48.956;9.200;2023-07-29T04:14:11;301.50;;;287.10;;
11269;SDS011;5692;48.956;9.200;2023-07-29T04:16:37;299.95;;;285.63;;
11269;SDS011;5692;48.956;9.200;2023-07-29T04:19:03;283.63;;;270.07;;
11269;SDS011;5692;48.956;9.200;2023-07-29T04:21:32;277.15;;;263.90;;
11269;SDS011;5692;48.956;9.200;2023-07-29T04:24:01;284.67;;;271.08;;
11269;SDS011;5692;48.956;9.200;2023-07-29T04:26:27;307.38;;;292.70;;
11269;SDS011;5692;48.956;9.200;2023-07-29T04:28:56;291.55;;;277.65;;
11269;SDS011;5692;48.956;9.200;2023-07-29T04:31:23;285.58;;;271.95;;
11269;SDS011;5692;48.956;9.200;2023-07-29T04:33:49;287.00;;;273.30;;
11269;SDS011;5692;48.956;9.200;2023-07-29T04:36:15;255.48;;;243.25;;
11269;SDS011;5692;48.956;9.200;2023-07-29T04:38:41;279.90;;;266.50;;
11269;SDS011;5692;48.956;9.200;2023-07-29T04:41:07;281.00;;;267.58;;
11269;SDS011;5692;48.956;9.200;2023-07-29T04:43:34;289.83;;;276.00;;
11269;SDS011;5692;48.956;9.200;2023-07-29T04:46:00;296.00;;;281.87;;
11269;SDS011;5692;48.956;9.200;2023-07-29T04:48:26;288.83;;;275.02;;
11269;SDS011;5692;48.956;9.200;2023-07-29T04:50:54;297.23;;;283.02;;
11269;SDS011;5692;48.956;9.200;2023-07-29T04:53:21;299.30;;;285.00;;
11269;SDS011;5692;48.956;9.200;2023-07-29T04:55:47;288.13;;;274.38;;
11269;SDS011;5692;48.956;9.200;2023-07-29T04:58:13;298.70;;;284.40;;
11269;SDS011;5692;48.956;9.200;2023-07-29T05:00:40;304.02;;;289.52;;
11269;SDS011;5692;48.956;9.200;2023-07-29T05:03:06;297.30;;;283.10;;
11269;SDS011;5692;48.956;9.200;2023-07-29T05:05:32;306.88;;;292.20;;
11269;SDS011;5692;48.956;9.200;2023-07-29T05:07:58;293.45;;;279.42;;
11269;SDS011;5692;48.956;9.200;2023-07-29T05:10:25;303.92;;;289.40;;
11269;SDS011;5692;48.956;9.200;2023-07-29T05:12:51;312.73;;;297.77;;
11269;SDS011;5692;48.956;9.200;2023-07-29T05:15:17;298.70;;;284.43;;
11269;SDS011;5692;48.956;9.200;2023-07-29T05:17:46;317.80;;;302.60;;
11269;SDS011;5692;48.956;9.200;2023-07-29T05:20:12;316.90;;;301.75;;
11269;SDS011;5692;48.956;9.200;2023-07-29T05:22:39;321.27;;;305.92;;
11269;SDS011;5692;48.956;9.200;2023-07-29T05:25:05;300.45;;;286.08;;
11269;SDS011;5692;48.956;9.200;2023-07-29T05:27:31;323.88;;;308.40;;
11269;SDS011;5692;48.956;9.200;2023-07-29T05:29:57;313.00;;;298.05;;
11269;SDS011;5692;48.956;9.200;2023-07-29T05:32:23;332.33;;;316.47;;
11269;SDS011;5692;48.956;9.200;2023-07-29T05:34:50;323.80;;;308.33;;
11269;SDS011;5692;48.956;9.200;2023-07-29T05:37:16;328.15;;;312.45;;
11269;SDS011;5692;48.956;9.200;2023-07-29T05:39:45;321.17;;;305.83;;
11269;SDS011;5692;48.956;9.200;2023-07-29T05:42:11;307.17;;;292.50;;
11269;SDS011;5692;48.956;9.200;2023-07-29T05:44:37;311.10;;;296.23;;
11269;SDS011;5692;48.956;9.200;2023-07-29T05:47:03;303.87;;;289.37;;
11269;SDS011;5692;48.956;9.200;2023-07-29T05:49:30;321.83;;;306.45;;
11269;SDS011;5692;48.956;9.200;2023-07-29T05:51:56;303.13;;;288.65;;
11269;SDS011;5692;48.956;9.200;2023-07-29T05:54:25;307.25;;;292.60;;
11269;SDS011;5692;48.956;9.200;2023-07-29T05:56:51;297.60;;;283.40;;
11269;SDS011;5692;48.956;9.200;2023-07-29T05:59:17;313.30;;;298.33;;
11269;SDS011;5692;48.956;9.200;2023-07-29T06:01:43;300.40;;;286.00;;
11269;SDS011;5692;48.956;9.200;2023-07-29T06:04:09;309.15;;;294.35;;
11269;SDS011;5692;48.956;9.200;2023-07-29T06:06:35;309.90;;;295.10;;
11269;SDS011;5692;48.956;9.200;2023-07-29T06:09:01;317.60;;;302.43;;
11269;SDS011;5692;48.956;9.200;2023-07-29T06:11:29;316.15;;;301.02;;
11269;SDS011;5692;48.956;9.200;2023-07-29T06:13:55;303.33;;;288.83;;
11269;SDS011;5692;48.956;9.200;2023-07-29T06:16:21;306.05;;;291.45;;
11269;SDS011;5692;48.956;9.200;2023-07-29T06:18:47;317.30;;;302.13;;
11269;SDS011;5692;48.956;9.200;2023-07-29T06:21:14;315.33;;;300.23;;
11269;SDS011;5692;48.956;9.200;2023-07-29T06:23:44;316.75;;;301.60;;
11269;SDS011;5692;48.956;9.200;2023-07-29T06:26:10;316.77;;;301.65;;
11269;SDS011;5692;48.956;9.200;2023-07-29T06:28:36;325.05;;;309.50;;
11269;SDS011;5692;48.956;9.200;2023-07-29T06:31:02;324.30;;;308.80;;
11269;SDS011;5692;48.956;9.200;2023-07-29T06:33:28;327.10;;;311.48;;
11269;SDS011;5692;48.956;9.200;2023-07-29T06:35:55;344.45;;;328.00;;
11269;SDS011;5692;48.956;9.200;2023-07-29T06:38:21;357.85;;;340.75;;
11269;SDS011;5692;48.956;9.200;2023-07-29T06:40:47;342.05;;;325.75;;
11269;SDS011;5692;48.956;9.200;2023-07-29T06:43:17;348.23;;;331.58;;
11269;SDS011;5692;48.956;9.200;2023-07-29T06:45:44;328.13;;;312.45;;
11269;SDS011;5692;48.956;9.200;2023-07-29T06:48:10;343.95;;;327.52;;
11269;SDS011;5692;48.956;9.200;2023-07-29T06:50:37;329.60;;;313.85;;
11269;SDS011;5692;48.956;9.200;2023-07-29T06:53:03;344.47;;;328.03;;
11269;SDS011;5692;48.956;9.200;2023-07-29T06:55:29;346.75;;;330.17;;
11269;SDS011;5692;48.956;9.200;2023-07-29T06:57:58;334.55;;;318.55;;
11269;SDS011;5692;48.956;9.200;2023-07-29T07:00:24;327.30;;;311.67;;
11269;SDS011;5692;48.956;9.200;2023-07-29T07:02:50;352.77;;;335.92;;
11269;SDS011;5692;48.956;9.200;2023-07-29T07:05:17;345.88;;;329.38;;
11269;SDS011;5692;48.956;9.200;2023-07-29T07:07:43;340.40;;;324.10;;
11269;SDS011;5692;48.956;9.200;2023-07-29T07:10:09;354.47;;;337.53;;
11269;SDS011;5692;48.956;9.200;2023-07-29T07:12:35;365.30;;;347.85;;
11269;SDS011;5692;48.956;9.200;2023-07-29T07:15:01;355.33;;;338.37;;
11269;SDS011;5692;48.956;9.200;2023-07-29T07:17:27;334.33;;;318.33;;
11269;SDS011;5692;48.956;9.200;2023-07-29T07:19:53;337.80;;;321.65;;
11269;SDS011;5692;48.956;9.200;2023-07-29T07:22:19;345.40;;;328.90;;
11269;SDS011;5692;48.956;9.200;2023-07-29T07:24:45;321.73;;;306.35;;
11269;SDS011;5692;48.956;9.200;2023-07-29T07:27:13;325.33;;;309.77;;
11269;SDS011;5692;48.956;9.200;2023-07-29T07:29:40;340.02;;;323.80;;
11269;SDS011;5692;48.956;9.200;2023-07-29T07:32:06;326.73;;;311.13;;
11269;SDS011;5692;48.956;9.200;2023-07-29T07:34:32;339.58;;;323.38;;
11269;SDS011;5692;48.956;9.200;2023-07-29T07:36:59;332.17;;;316.33;;
11269;SDS011;5692;48.956;9.200;2023-07-29T07:39:25;322.25;;;306.85;;
11269;SDS011;5692;48.956;9.200;2023-07-29T07:41:51;338.95;;;322.75;;
11269;SDS011;5692;48.956;9.200;2023-07-29T07:44:20;330.58;;;314.80;;
11269;SDS011;5692;48.956;9.200;2023-07-29T07:46:46;335.70;;;319.67;;
11269;SDS011;5692;48.956;9.200;2023-07-29T07:49:13;341.10;;;324.80;;
11269;SDS011;5692;48.956;9.200;2023-07-29T07:51:39;316.60;;;301.48;;
11269;SDS011;5692;48.956;9.200;2023-07-29T07:54:05;331.67;;;315.83;;
11269;SDS011;5692;48.956;9.200;2023-07-29T07:56:31;335.53;;;319.53;;
11269;SDS011;5692;48.956;9.200;2023-07-29T07:58:57;332.13;;;316.27;;
11269;SDS011;5692;48.956;9.200;2023-07-29T08:01:26;342.60;;;326.23;;
11269;SDS011;5692;48.956;9.200;2023-07-29T08:03:52;355.37;;;338.40;;
11269;SDS011;5692;48.956;9.200;2023-07-29T08:06:18;348.73;;;332.08;;
11269;SDS011;5692;48.956;9.200;2023-07-29T08:08:44;338.05;;;321.90;;
11269;SDS011;5692;48.956;9.200;2023-07-29T08:11:10;320.60;;;305.30;;
11269;SDS011;5692;48.956;9.200;2023-07-29T08:13:36;308.83;;;294.08;;
11269;SDS011;5692;48.956;9.200;2023-07-29T08:16:02;316.35;;;301.25;;
11269;SDS011;5692;48.956;9.200;2023-07-29T08:18:28;297.55;;;283.30;;
11269;SDS011;5692;48.956;9.200;2023-07-29T08:20:57;297.00;;;282.80;;
11269;SDS011;5692;48.956;9.200;2023-07-29T08:23:27;282.27;;;268.77;;
11269;SDS011;5692;48.956;9.200;2023-07-29T08:25:53;273.75;;;260.65;;
11269;SDS011;5692;48.956;9.200;2023-07-29T08:28:21;326.80;;;311.20;;
11269;SDS011;5692;48.956;9.200;2023-07-29T08:30:47;304.67;;;290.10;;
11269;SDS011;5692;48.956;9.200;2023-07-29T08:33:14;324.83;;;309.30;;
11269;SDS011;5692;48.956;9.200;2023-07-29T08:35:40;305.23;;;290.63;;
11269;SDS011;5692;48.956;9.200;2023-07-29T08:38:06;297.93;;;283.73;;
11269;SDS011;5692;48.956;9.200;2023-07-29T08:40:32;293.98;;;279.92;;
11269;SDS011;5692;48.956;9.200;2023-07-29T08:43:01;295.48;;;281.35;;
11269;SDS011;5692;48.956;9.200;2023-07-29T08:45:29;298.70;;;284.42;;
11269;SDS011;5692;48.956;9.200;2023-07-29T08:47:57;279.45;;;266.10;;
11269;SDS011;5692;48.956;9.200;2023-07-29T08:50:24;287.77;;;274.02;;
11269;SDS011;5692;48.956;9.200;2023-07-29T08:52:50;289.58;;;275.73;;
11269;SDS011;5692;48.956;9.200;2023-07-29T08:55:18;269.83;;;256.92;;
11269;SDS011;5692;48.956;9.200;2023-07-29T08:57:44;259.33;;;246.93;;
11269;SDS011;5692;48.956;9.200;2023-07-29T09:00:11;266.67;;;253.93;;
11269;SDS011;5692;48.956;9.200;2023-07-29T09:02:37;291.80;;;277.85;;
11269;SDS011;5692;48.956;9.200;2023-07-29T09:05:04;283.97;;;270.37;;
11269;SDS011;5692;48.956;9.200;2023-07-29T09:07:31;270.23;;;257.30;;
11269;SDS011;5692;48.956;9.200;2023-07-29T09:09:59;326.83;;;311.23;;
11269;SDS011;5692;48.956;9.200;2023-07-29T09:12:25;347.20;;;330.60;;
11269;SDS011;5692;48.956;9.200;2023-07-29T09:14:52;342.42;;;326.08;;
11269;SDS011;5692;48.956;9.200;2023-07-29T09:17:19;316.27;;;301.17;;
11269;SDS011;5692;48.956;9.200;2023-07-29T09:19:50;318.60;;;303.38;;
11269;SDS011;5692;48.956;9.200;2023-07-29T09:22:17;304.20;;;289.65;;
11269;SDS011;5692;48.956;9.200;2023-07-29T09:24:44;306.55;;;291.90;;
11269;SDS011;5692;48.956;9.200;2023-07-29T09:27:23;274.02;;;260.92;;
11269;SDS011;5692;48.956;9.200;2023-07-29T09:29:49;254.27;;;242.10;;
11269;SDS011;5692;48.956;9.200;2023-07-29T09:32:19;283.30;;;269.77;;
11269;SDS011;5692;48.956;9.200;2023-07-29T09:34:45;305.23;;;290.63;;
11269;SDS011;5692;48.956;9.200;2023-07-29T09:37:20;341.35;;;325.05;;
11269;SDS011;5692;48.956;9.200;2023-07-29T09:39:51;336.05;;;320.02;;
11269;SDS011;5692;48.956;9.200;2023-07-29T09:42:17;329.50;;;313.77;;
11269;SDS011;5692;48.956;9.200;2023-07-29T09:44:44;315.77;;;300.67;;
11269;SDS011;5692;48.956;9.200;2023-07-29T09:47:18;296.65;;;282.48;;
11269;SDS011;5692;48.956;9.200;2023-07-29T09:49:45;265.77;;;253.07;;
11269;SDS011;5692;48.956;9.200;2023-07-29T09:52:11;274.93;;;261.80;;
11269;SDS011;5692;48.956;9.200;2023-07-29T09:54:37;275.40;;;262.23;;
11269;SDS011;5692;48.956;9.200;2023-07-29T09:57:04;289.15;;;275.33;;
11269;SDS011;5692;48.956;9.200;2023-07-29T09:59:35;304.55;;;290.00;;
11269;SDS011;5692;48.956;9.200;2023-07-29T10:02:13;329.92;;;314.13;;
11269;SDS011;5692;48.956;9.200;2023-07-29T10:04:41;315.48;;;300.42;;
11269;SDS011;5692;48.956;9.200;2023-07-29T10:07:07;306.13;;;291.52;;
11269;SDS011;5692;48.956;9.200;2023-07-29T10:09:37;321.40;;;306.05;;
11269;SDS011;5692;48.956;9.200;2023-07-29T10:12:04;310.30;;;295.45;;
11269;SDS011;5692;48.956;9.200;2023-07-29T10:14:31;305.27;;;290.67;;
11269;SDS011;5692;48.956;9.200;2023-07-29T10:16:57;326.88;;;311.25;;
11269;SDS011;5692;48.956;9.200;2023-07-29T10:19:24;309.85;;;295.05;;
11269;SDS011;5692;48.956;9.200;2023-07-29T10:21:51;279.08;;;265.75;;
11269;SDS011;5692;48.956;9.200;2023-07-29T10:24:22;263.38;;;250.77;;
11269;SDS011;5692;48.956;9.200;2023-07-29T10:26:53;268.85;;;256.00;;
11269;SDS011;5692;48.956;9.200;2023-07-29T10:29:21;271.02;;;258.05;;
11269;SDS011;5692;48.956;9.200;2023-07-29T10:31:49;276.67;;;263.48;;
11269;SDS011;5692;48.956;9.200;2023-07-29T10:34:18;266.88;;;254.13;;
11269;SDS011;5692;48.956;9.200;2023-07-29T10:36:45;255.45;;;243.25;;
11269;SDS011;5692;48.956;9.200;2023-07-29T10:39:15;257.10;;;244.80;;
11269;SDS011;5692;48.956;9.200;2023-07-29T10:42:00;258.13;;;245.80;;
11269;SDS011;5692;48.956;9.200;2023-07-29T10:47:28;284.95;;;271.35;;
11269;SDS011;5692;48.956;9.200;2023-07-29T10:49:55;280.13;;;266.75;;
11269;SDS011;5692;48.956;9.200;2023-07-29T10:52:28;276.98;;;263.73;;
11269;SDS011;5692;48.956;9.200;2023-07-29T10:55:00;276.05;;;262.85;;
11269;SDS011;5692;48.956;9.200;2023-07-29T10:57:34;281.17;;;267.73;;
11269;SDS011;5692;48.956;9.200;2023-07-29T11:00:05;273.83;;;260.73;;
11269;SDS011;5692;48.956;9.200;2023-07-29T11:02:35;288.30;;;274.50;;
11269;SDS011;5692;48.956;9.200;2023-07-29T11:05:05;296.90;;;282.70;;
11269;SDS011;5692;48.956;9.200;2023-07-29T11:07:32;305.15;;;290.55;;
11269;SDS011;5692;48.956;9.200;2023-07-29T11:10:11;293.83;;;279.77;;
11269;SDS011;5692;48.956;9.200;2023-07-29T11:17:39;311.83;;;296.93;;
11269;SDS011;5692;48.956;9.200;2023-07-29T11:20:06;298.33;;;284.03;;
11269;SDS011;5692;48.956;9.200;2023-07-29T11:22:33;303.97;;;289.47;;
11269;SDS011;5692;48.956;9.200;2023-07-29T11:25:01;4.60;;;0.90;;
11269;SDS011;5692;48.956;9.200;2023-07-29T11:27:27;6.30;;;1.67;;
11269;SDS011;5692;48.956;9.200;2023-07-29T11:29:57;4.43;;;0.83;;
11269;SDS011;5692;48.956;9.200;2023-07-29T11:32:23;5.43;;;1.95;;
11269;SDS011;5692;48.956;9.200;2023-07-29T11:34:50;9.43;;;1.37;;
11269;SDS011;5692;48.956;9.200;2023-07-29T11:37:16;4.50;;;1.40;;
11269;SDS011;5692;48.956;9.200;2023-07-29T11:39:43;7.30;;;1.73;;
11269;SDS011;5692;48.956;9.200;2023-07-29T11:42:14;6.78;;;2.10;;
11269;SDS011;5692;48.956;9.200;2023-07-29T11:44:40;5.85;;;1.88;;
11269;SDS011;5692;48.956;9.200;2023-07-29T11:47:07;211.35;;;201.25;;
11269;SDS011;5692;48.956;9.200;2023-07-29T11:49:33;209.00;;;199.00;;
11269;SDS011;5692;48.956;9.200;2023-07-29T11:52:02;233.65;;;222.45;;
11269;SDS011;5692;48.956;9.200;2023-07-29T11:54:29;316.88;;;301.75;;
11269;SDS011;5692;48.956;9.200;2023-07-29T11:56:55;318.38;;;303.17;;
11269;SDS011;5692;48.956;9.200;2023-07-29T11:59:21;309.83;;;295.02;;
11269;SDS011;5692;48.956;9.200;2023-07-29T12:01:48;320.95;;;305.65;;
11269;SDS011;5692;48.956;9.200;2023-07-29T12:04:14;290.27;;;276.38;;
11269;SDS011;5692;48.956;9.200;2023-07-29T12:06:40;318.40;;;303.20;;
11269;SDS011;5692;48.956;9.200;2023-07-29T12:09:08;317.03;;;301.87;;
11269;SDS011;5692;48.956;9.200;2023-07-29T12:11:34;314.33;;;299.33;;
11269;SDS011;5692;48.956;9.200;2023-07-29T12:14:01;321.60;;;306.23;;
11269;SDS011;5692;48.956;9.200;2023-07-29T12:16:27;324.63;;;309.13;;
11269;SDS011;5692;48.956;9.200;2023-07-29T12:19:01;322.07;;;306.67;;
11269;SDS011;5692;48.956;9.200;2023-07-29T12:21:27;307.45;;;292.75;;
11269;SDS011;5692;48.956;9.200;2023-07-29T12:23:54;317.50;;;302.33;;
11269;SDS011;5692;48.956;9.200;2023-07-29T12:26:20;332.47;;;316.57;;
11269;SDS011;5692;48.956;9.200;2023-07-29T12:28:46;321.47;;;306.07;;
11269;SDS011;5692;48.956;9.200;2023-07-29T12:31:13;322.33;;;306.93;;
11269;SDS011;5692;48.956;9.200;2023-07-29T12:33:39;313.33;;;298.37;;
11269;SDS011;5692;48.956;9.200;2023-07-29T12:36:07;313.45;;;298.45;;
11269;SDS011;5692;48.956;9.200;2023-07-29T12:38:33;315.80;;;300.70;;
11269;SDS011;5692;48.956;9.200;2023-07-29T12:40:59;340.73;;;324.47;;
11269;SDS011;5692;48.956;9.200;2023-07-29T12:43:25;324.07;;;308.60;;
11269;SDS011;5692;48.956;9.200;2023-07-29T12:45:51;326.40;;;310.83;;
11269;SDS011;5692;48.956;9.200;2023-07-29T12:48:18;321.87;;;306.47;;
11269;SDS011;5692;48.956;9.200;2023-07-29T12:50:46;328.67;;;312.97;;
11269;SDS011;5692;48.956;9.200;2023-07-29T12:53:16;315.30;;;300.23;;
11269;SDS011;5692;48.956;9.200;2023-07-29T12:55:45;309.00;;;294.23;;
11269;SDS011;5692;48.956;9.200;2023-07-29T12:58:11;326.07;;;310.47;;
11269;SDS011;5692;48.956;9.200;2023-07-29T13:00:37;302.23;;;287.80;;
11269;SDS011;5692;48.956;9.200;2023-07-29T13:03:03;312.83;;;297.90;;
11269;SDS011;5692;48.956;9.200;2023-07-29T13:05:38;312.67;;;297.73;;
11269;SDS011;5692;48.956;9.200;2023-07-29T13:08:04;319.90;;;304.63;;
11269;SDS011;5692;48.956;9.200;2023-07-29T13:10:30;327.43;;;311.80;;
11269;SDS011;5692;48.956;9.200;2023-07-29T13:12:59;166.67;;;158.67;;
11269;SDS011;5692;48.956;9.200;2023-07-29T13:15:25;174.07;;;165.73;;
11269;SDS011;5692;48.956;9.200;2023-07-29T13:17:51;275.90;;;262.73;;
11269;SDS011;5692;48.956;9.200;2023-07-29T13:20:17;314.57;;;299.53;;
11269;SDS011;5692;48.956;9.200;2023-07-29T13:22:43;299.37;;;285.07;;
11269;SDS011;5692;48.956;9.200;2023-07-29T13:25:09;324.20;;;308.70;;
11269;SDS011;5692;48.956;9.200;2023-07-29T13:27:35;306.87;;;292.17;;
11269;SDS011;5692;48.956;9.200;2023-07-29T13:30:03;307.83;;;293.13;;
11269;SDS011;5692;48.956;9.200;2023-07-29T13:32:29;589.93;;;561.80;;
11269;SDS011;5692;48.956;9.200;2023-07-29T13:34:55;333.37;;;317.47;;
11269;SDS011;5692;48.956;9.200;2023-07-29T13:37:21;312.73;;;297.80;;
11269;SDS011;5692;48.956;9.200;2023-07-29T13:39:47;316.73;;;301.60;;
11269;SDS011;5692;48.956;9.200;2023-07-29T13:42:13;297.77;;;283.57;;
11269;SDS011;5692;48.956;9.200;2023-07-29T13:44:39;304.90;;;290.30;;
11269;SDS011;5692;48.956;9.200;2023-07-29T13:47:05;281.67;;;268.20;;
11269;SDS011;5692;48.956;9.200;2023-07-29T13:49:32;296.73;;;282.53;;
11269;SDS011;5692;48.956;9.200;2023-07-29T13:51:58;312.67;;;297.73;;
11269;SDS011;5692;48.956;9.200;2023-07-29T13:54:24;296.20;;;282.03;;
11269;SDS011;5692;48.956;9.200;2023-07-29T13:56:50;308.90;;;294.13;;
11269;SDS011;5692;48.956;9.200;2023-07-29T13:59:16;328.50;;;312.80;;
11269;SDS011;5692;48.956;9.200;2023-07-29T14:01:42;298.00;;;283.77;;
11269;SDS011;5692;48.956;9.200;2023-07-29T14:04:08;311.90;;;297.00;;
11269;SDS011;5692;48.956;9.200;2023-07-29T14:06:34;304.87;;;290.30;;
11269;SDS011;5692;48.956;9.200;2023-07-29T14:09:00;305.37;;;290.77;;
11269;SDS011;5692;48.956;9.200;2023-07-29T14:11:26;339.87;;;323.63;;
11269;SDS011;5692;48.956;9.200;2023-07-29T14:13:52;319.10;;;303.87;;
11269;SDS011;5692;48.956;9.200;2023-07-29T14:16:18;308.80;;;294.00;;
11269;SDS011;5692;48.956;9.200;2023-07-29T14:18:44;327.33;;;311.70;;
11269;SDS011;5692;48.956;9.200;2023-07-29T14:21:10;316.60;;;301.50;;
11269;SDS011;5692;48.956;9.200;2023-07-29T14:23:36;329.90;;;314.13;;
11269;SDS011;5692;48.956;9.200;2023-07-29T14:26:02;324.37;;;308.87;;
11269;SDS011;5692;48.956;9.200;2023-07-29T14:28:28;322.70;;;307.27;;